Time;durP1;ratioP1;P1;durP2;ratioP2;P2;SDS_P1;SDS_P2;PMS_P1;PMS_P2;Temp;Humidity;BMP_temperature;BMP_pressure;BME280_temperature;BME280_humidity;BME280_pressure;Samples;Min_cycle;Max_cycle;Signal;HPM_P1;HPM_P2
2024/01/27 00:00:42;;;;;;;15.27;13.90;;;2.80;99.90;;;;;;5048079;28;20254;-78
2024/01/27 00:03:08;;;;;;;14.87;13.77;;;2.80;99.90;;;;;;5040288;28;20223;-78
2024/01/27 00:05:35;;;;;;;14.87;13.80;;;2.70;99.90;;;;;;5051100;28;20254;-78
2024/01/27 00:08:02;;;;;;;15.37;14.27;;;2.70;99.90;;;;;;5040065;28;20207;-78
2024/01/27 00:10:30;;;;;;;14.57;13.60;;;2.60;99.90;;;;;;5052211;28;20566;-79
2024/01/27 00:12:57;;;;;;;15.40;14.20;;;2.50;99.90;;;;;;5039159;28;20187;-79
2024/01/27 00:15:24;;;;;;;15.07;14.17;;;2.40;99.90;;;;;;5045205;28;20202;-79
2024/01/27 00:17:51;;;;;;;15.70;14.50;;;2.40;99.90;;;;;;5036853;28;20215;-78
2024/01/27 00:20:18;;;;;;;15.00;14.00;;;2.30;99.90;;;;;;5047031;28;20199;-78
2024/01/27 00:22:44;;;;;;;15.03;14.03;;;2.30;99.90;;;;;;5033932;28;20792;-78
2024/01/27 00:25:11;;;;;;;15.50;14.43;;;2.30;99.90;;;;;;5044843;28;20199;-79
2024/01/27 00:27:39;;;;;;;14.57;13.67;;;2.30;99.90;;;;;;5038495;28;20223;-79
2024/01/27 00:30:07;;;;;;;15.00;14.10;;;2.20;99.90;;;;;;5038103;28;20203;-78
2024/01/27 00:32:34;;;;;;;14.83;13.83;;;2.20;99.90;;;;;;5049518;28;20249;-79
2024/01/27 00:35:01;;;;;;;15.43;14.10;;;2.20;99.90;;;;;;5045482;28;20212;-79
2024/01/27 00:37:28;;;;;;;15.33;14.03;;;2.20;99.90;;;;;;5045692;28;20223;-79
2024/01/27 00:39:55;;;;;;;16.13;14.77;;;2.20;99.90;;;;;;5045459;28;20226;-78
2024/01/27 00:42:23;;;;;;;15.47;14.30;;;2.20;99.90;;;;;;5039070;28;20224;-78
2024/01/27 00:44:52;;;;;;;15.37;14.40;;;2.10;99.90;;;;;;5037802;28;20203;-78
2024/01/27 00:47:19;;;;;;;15.53;14.43;;;2.10;99.90;;;;;;5041428;28;20192;-78
2024/01/27 00:49:46;;;;;;;15.60;14.23;;;2.10;99.90;;;;;;5039087;28;20208;-78
2024/01/27 00:52:12;;;;;;;14.87;13.87;;;2.00;99.90;;;;;;5039318;28;20190;-78
2024/01/27 00:54:39;;;;;;;15.53;14.43;;;2.00;99.90;;;;;;5045970;28;20256;-78
2024/01/27 00:57:06;;;;;;;15.47;14.40;;;2.00;99.90;;;;;;5043780;28;20206;-78
2024/01/27 00:59:33;;;;;;;15.73;14.57;;;2.00;99.90;;;;;;5038629;28;20208;-78
2024/01/27 01:02:01;;;;;;;15.60;14.23;;;2.00;99.90;;;;;;5041367;28;20237;-79
2024/01/27 01:04:27;;;;;;;16.27;14.93;;;1.90;99.90;;;;;;5045232;28;20238;-78
2024/01/27 01:06:54;;;;;;;15.63;14.50;;;1.90;99.90;;;;;;5039953;28;20210;-79
2024/01/27 01:09:21;;;;;;;15.77;14.63;;;1.90;99.90;;;;;;5046021;28;20242;-79
2024/01/27 01:11:48;;;;;;;16.53;15.30;;;1.80;99.90;;;;;;5050135;28;20199;-78
2024/01/27 01:14:15;;;;;;;16.23;15.20;;;1.80;99.90;;;;;;5046473;28;20252;-78
2024/01/27 01:16:41;;;;;;;17.10;15.80;;;1.90;99.90;;;;;;5040216;28;20200;-78
2024/01/27 01:19:09;;;;;;;17.10;15.80;;;1.90;99.90;;;;;;5035345;28;20522;-78
2024/01/27 01:21:36;;;;;;;18.43;16.90;;;1.90;99.90;;;;;;5043792;28;20196;-78
2024/01/27 01:24:03;;;;;;;17.60;16.20;;;1.80;99.90;;;;;;5049581;28;20223;-79
2024/01/27 01:26:30;;;;;;;17.33;16.13;;;1.80;99.90;;;;;;5035140;28;20269;-78
2024/01/27 01:28:57;;;;;;;16.70;15.50;;;1.80;99.90;;;;;;5037778;28;20309;-78
2024/01/27 01:31:23;;;;;;;17.63;16.33;;;1.80;99.90;;;;;;5038617;28;20202;-78
2024/01/27 01:33:50;;;;;;;16.90;15.73;;;1.80;99.90;;;;;;5036972;28;20223;-78
2024/01/27 01:36:18;;;;;;;17.40;15.90;;;1.90;99.90;;;;;;5037513;28;20250;-79
2024/01/27 01:38:45;;;;;;;17.60;16.23;;;1.80;99.90;;;;;;5034622;28;20269;-78
2024/01/27 01:41:12;;;;;;;16.80;15.70;;;1.80;99.90;;;;;;5040557;28;20218;-78
2024/01/27 01:43:39;;;;;;;16.97;15.57;;;1.90;99.90;;;;;;5038636;28;20216;-79
2024/01/27 01:46:07;;;;;;;16.93;15.73;;;1.80;99.90;;;;;;5045631;28;20287;-78
2024/01/27 01:48:34;;;;;;;16.80;15.50;;;1.80;99.90;;;;;;5040955;28;20253;-80
2024/01/27 01:51:01;;;;;;;16.77;15.47;;;1.70;99.90;;;;;;5041384;28;20196;-78
2024/01/27 01:53:29;;;;;;;17.00;15.90;;;1.70;99.90;;;;;;5042506;28;20187;-79
2024/01/27 01:55:56;;;;;;;18.00;16.50;;;1.70;99.90;;;;;;5036047;28;20223;-78
2024/01/27 01:58:23;;;;;;;17.10;15.57;;;1.70;99.90;;;;;;5040840;28;20725;-78
2024/01/27 02:00:50;;;;;;;17.03;15.70;;;1.70;99.90;;;;;;5037177;28;20623;-78
2024/01/27 02:03:17;;;;;;;16.90;15.50;;;1.70;99.90;;;;;;5042101;28;20215;-79
2024/01/27 02:05:44;;;;;;;16.43;15.33;;;1.70;99.90;;;;;;5035785;28;20227;-78
2024/01/27 02:08:10;;;;;;;16.03;15.00;;;1.70;99.90;;;;;;5040971;28;20637;-78
2024/01/27 02:10:38;;;;;;;16.97;15.70;;;1.70;99.90;;;;;;5048328;28;20210;-79
2024/01/27 02:13:16;;;;;;;17.17;15.77;;;1.70;99.90;;;;;;5036158;28;20239;-77
2024/01/27 02:15:43;;;;;;;17.50;15.83;;;1.70;99.90;;;;;;5042893;28;20504;-79
2024/01/27 02:18:10;;;;;;;16.27;15.17;;;1.70;99.90;;;;;;5041317;28;20484;-78
2024/01/27 02:20:37;;;;;;;17.20;15.80;;;1.80;99.90;;;;;;5038135;28;20192;-79
2024/01/27 02:23:04;;;;;;;17.40;16.20;;;1.70;99.90;;;;;;5031785;28;20718;-78
2024/01/27 02:25:33;;;;;;;16.73;15.43;;;1.70;99.90;;;;;;5042387;28;20441;-78
2024/01/27 02:28:00;;;;;;;16.97;15.60;;;1.70;99.90;;;;;;5035276;28;20282;-78
2024/01/27 02:30:27;;;;;;;16.60;15.50;;;1.70;99.90;;;;;;5042622;28;20193;-79
2024/01/27 02:32:54;;;;;;;16.03;14.93;;;1.70;99.90;;;;;;5037076;28;20219;-78
2024/01/27 02:35:21;;;;;;;16.63;15.57;;;1.70;99.90;;;;;;5032245;28;20254;-78
2024/01/27 02:37:48;;;;;;;16.87;15.67;;;1.70;99.90;;;;;;5042008;28;20191;-78
2024/01/27 02:40:15;;;;;;;16.40;15.30;;;1.60;99.90;;;;;;5041171;28;20199;-78
2024/01/27 02:42:43;;;;;;;16.77;15.67;;;1.70;99.90;;;;;;5037060;28;20214;-79
2024/01/27 02:45:11;;;;;;;16.43;15.23;;;1.60;99.90;;;;;;5035956;28;20208;-78
2024/01/27 02:47:38;;;;;;;16.70;15.50;;;1.60;99.90;;;;;;5048732;28;20191;-78
2024/01/27 02:50:06;;;;;;;17.00;15.70;;;1.50;99.90;;;;;;5032705;28;20204;-78
2024/01/27 02:52:32;;;;;;;15.97;14.87;;;1.50;99.90;;;;;;5035980;28;20242;-79
2024/01/27 02:54:59;;;;;;;16.30;15.30;;;1.50;99.90;;;;;;5038163;28;20196;-78
2024/01/27 02:57:26;;;;;;;16.93;15.40;;;1.50;99.90;;;;;;5038806;28;20250;-78
2024/01/27 02:59:54;;;;;;;16.27;15.17;;;1.50;99.90;;;;;;5042281;28;20226;-78
2024/01/27 03:02:21;;;;;;;16.90;15.60;;;1.50;99.90;;;;;;5044509;28;20249;-78
2024/01/27 03:04:48;;;;;;;17.07;15.70;;;1.50;99.90;;;;;;5043540;28;20215;-78
2024/01/27 03:07:15;;;;;;;17.33;15.87;;;1.50;99.90;;;;;;5043439;28;20207;-78
2024/01/27 03:09:41;;;;;;;16.30;15.17;;;1.40;99.90;;;;;;5042503;28;20237;-78
2024/01/27 03:12:09;;;;;;;16.00;15.00;;;1.40;99.90;;;;;;5045811;28;20203;-78
2024/01/27 03:14:35;;;;;;;16.73;15.43;;;1.30;99.90;;;;;;5042566;28;20206;-78
2024/01/27 03:17:04;;;;;;;17.77;16.27;;;1.30;99.90;;;;;;5045109;28;20511;-78
2024/01/27 03:19:31;;;;;;;17.00;15.60;;;1.30;99.90;;;;;;5040037;28;20455;-78
2024/01/27 03:21:57;;;;;;;16.43;15.30;;;1.20;99.90;;;;;;5040431;28;20710;-79
2024/01/27 03:24:24;;;;;;;17.00;15.70;;;1.20;99.90;;;;;;5041106;28;20207;-78
2024/01/27 03:26:51;;;;;;;17.50;16.20;;;1.10;99.90;;;;;;5021441;28;20224;-78
2024/01/27 03:29:18;;;;;;;18.70;17.00;;;1.10;99.90;;;;;;5039025;28;20474;-78
2024/01/27 03:31:45;;;;;;;19.20;17.33;;;1.10;99.90;;;;;;5034394;28;20201;-78
2024/01/27 03:34:14;;;;;;;17.40;16.00;;;1.10;99.90;;;;;;5039523;28;20952;-78
2024/01/27 03:36:41;;;;;;;18.87;16.90;;;1.10;99.90;;;;;;5045614;28;21034;-78
2024/01/27 03:39:08;;;;;;;18.60;17.10;;;1.10;99.90;;;;;;5039294;28;20458;-77
2024/01/27 03:41:35;;;;;;;18.33;16.93;;;1.10;99.90;;;;;;5015865;28;20483;-79
2024/01/27 03:44:02;;;;;;;18.43;16.83;;;1.10;99.90;;;;;;5030371;28;20487;-78
2024/01/27 03:46:29;;;;;;;17.37;15.97;;;1.10;99.90;;;;;;5023153;28;20446;-80
2024/01/27 03:48:56;;;;;;;17.43;15.87;;;1.20;99.90;;;;;;5027332;28;20251;-77
2024/01/27 03:51:25;;;;;;;17.27;15.87;;;1.20;99.90;;;;;;5023742;28;20540;-78
2024/01/27 03:53:52;;;;;;;17.00;15.50;;;1.20;99.90;;;;;;5023370;28;20439;-79
2024/01/27 03:56:19;;;;;;;17.80;16.20;;;1.20;99.90;;;;;;5030321;28;20965;-78
2024/01/27 03:58:45;;;;;;;17.00;15.63;;;1.20;99.90;;;;;;5027283;28;20882;-78
2024/01/27 04:01:12;;;;;;;17.40;16.00;;;1.20;99.90;;;;;;5021284;28;20671;-78
2024/01/27 04:03:39;;;;;;;17.13;15.77;;;1.20;99.90;;;;;;5024428;28;20212;-79
2024/01/27 04:06:06;;;;;;;16.67;15.33;;;1.20;99.90;;;;;;5024625;28;20440;-77
2024/01/27 04:08:34;;;;;;;16.73;15.43;;;1.20;99.90;;;;;;5024949;28;20234;-78
2024/01/27 04:11:01;;;;;;;16.43;15.03;;;1.20;99.90;;;;;;5032178;28;20445;-78
2024/01/27 04:13:27;;;;;;;16.43;15.03;;;1.20;99.90;;;;;;5025905;28;20329;-79
2024/01/27 04:15:54;;;;;;;17.03;15.43;;;1.20;99.90;;;;;;5034829;28;20488;-78
2024/01/27 04:18:21;;;;;;;16.97;15.67;;;1.20;99.90;;;;;;5028216;28;20235;-78
2024/01/27 04:20:48;;;;;;;17.43;16.03;;;1.20;99.90;;;;;;5032601;28;20469;-79
2024/01/27 04:23:15;;;;;;;16.70;15.10;;;1.30;99.90;;;;;;5027626;28;20442;-79
2024/01/27 04:25:44;;;;;;;16.47;15.07;;;1.30;99.90;;;;;;5026370;28;20462;-78
2024/01/27 04:28:12;;;;;;;17.07;15.50;;;1.30;99.90;;;;;;5028507;28;20516;-79
2024/01/27 04:30:39;;;;;;;15.70;14.60;;;1.30;99.90;;;;;;5025376;28;20534;-79
2024/01/27 04:33:07;;;;;;;15.57;14.30;;;1.30;99.90;;;;;;5029161;28;20442;-78
2024/01/27 04:35:34;;;;;;;14.87;13.87;;;1.30;99.90;;;;;;5025670;28;20449;-79
2024/01/27 04:38:01;;;;;;;15.20;14.10;;;1.30;99.90;;;;;;5026283;28;20990;-79
2024/01/27 04:40:28;;;;;;;14.97;13.87;;;1.30;99.90;;;;;;5027842;28;20489;-77
2024/01/27 04:42:56;;;;;;;15.93;14.43;;;1.30;99.90;;;;;;5025001;28;20478;-78
2024/01/27 04:45:23;;;;;;;15.93;14.80;;;1.40;99.90;;;;;;5030640;28;20294;-79
2024/01/27 04:47:49;;;;;;;15.23;14.10;;;1.40;99.90;;;;;;5027715;28;20208;-79
2024/01/27 04:50:16;;;;;;;15.67;14.40;;;1.30;99.90;;;;;;5028753;28;20287;-79
2024/01/27 04:52:43;;;;;;;15.40;14.20;;;1.30;99.90;;;;;;5032358;28;20200;-79
2024/01/27 04:55:10;;;;;;;16.07;14.87;;;1.30;99.90;;;;;;5026992;28;20525;-78
2024/01/27 04:57:37;;;;;;;15.77;14.57;;;1.30;99.90;;;;;;5027584;28;20238;-78
2024/01/27 05:00:10;;;;;;;15.50;14.40;;;1.20;99.90;;;;;;5030263;28;20254;-78
2024/01/27 05:02:37;;;;;;;15.20;14.20;;;1.20;99.90;;;;;;5019584;28;20234;-78
2024/01/27 05:05:05;;;;;;;15.00;14.00;;;1.20;99.90;;;;;;5031763;28;20462;-79
2024/01/27 05:07:31;;;;;;;15.63;14.40;;;1.10;99.90;;;;;;5036526;28;20504;-78
2024/01/27 05:09:58;;;;;;;15.23;14.03;;;1.00;99.90;;;;;;5047908;28;20989;-78
2024/01/27 05:12:25;;;;;;;14.93;13.87;;;1.00;99.90;;;;;;5042847;28;20981;-80
2024/01/27 05:14:52;;;;;;;15.53;14.53;;;0.90;99.90;;;;;;5039986;28;20261;-78
2024/01/27 05:17:20;;;;;;;16.30;14.90;;;0.90;99.90;;;;;;5043747;28;20219;-78
2024/01/27 05:19:47;;;;;;;15.70;14.60;;;0.80;99.90;;;;;;5037843;28;20215;-78
2024/01/27 05:22:14;;;;;;;16.03;14.60;;;0.80;99.90;;;;;;5034159;28;20891;-79
2024/01/27 05:24:40;;;;;;;15.53;14.43;;;0.80;99.90;;;;;;5037601;28;20474;-78
2024/01/27 05:27:07;;;;;;;16.77;15.23;;;0.70;99.90;;;;;;5043241;28;20446;-78
2024/01/27 05:29:34;;;;;;;16.57;15.27;;;0.70;99.90;;;;;;5038059;28;20895;-78
2024/01/27 05:32:01;;;;;;;17.93;16.47;;;0.70;99.90;;;;;;5036725;28;20478;-78
2024/01/27 05:34:29;;;;;;;17.90;16.40;;;0.70;99.90;;;;;;5036306;28;20198;-78
2024/01/27 05:36:56;;;;;;;17.10;15.90;;;0.70;99.90;;;;;;5036913;28;20457;-78
2024/01/27 05:39:23;;;;;;;17.43;15.93;;;0.70;99.90;;;;;;5039455;28;20505;-77
2024/01/27 05:41:50;;;;;;;17.53;15.97;;;0.70;99.90;;;;;;5039305;28;20850;-78
2024/01/27 05:44:17;;;;;;;18.53;17.03;;;0.70;99.90;;;;;;5038591;28;20477;-78
2024/01/27 05:46:44;;;;;;;16.83;15.23;;;0.70;99.90;;;;;;5046980;28;20491;-79
2024/01/27 05:49:10;;;;;;;16.30;15.00;;;0.60;99.90;;;;;;5035258;28;20474;-78
2024/01/27 05:51:38;;;;;;;16.20;14.97;;;0.60;99.90;;;;;;5045291;28;20425;-79
2024/01/27 05:54:05;;;;;;;15.87;14.20;;;0.50;99.90;;;;;;5045273;28;20437;-80
2024/01/27 05:56:32;;;;;;;15.83;14.63;;;0.50;99.90;;;;;;5043038;28;20226;-80
2024/01/27 05:59:00;;;;;;;16.00;14.80;;;0.40;99.90;;;;;;5043487;28;20474;-79
2024/01/27 06:01:26;;;;;;;16.30;14.97;;;0.40;99.90;;;;;;5044349;28;20445;-79
2024/01/27 06:03:53;;;;;;;16.17;14.70;;;0.40;99.90;;;;;;5047458;28;20530;-78
2024/01/27 06:06:20;;;;;;;15.83;14.50;;;0.30;99.90;;;;;;5040806;28;20508;-78
2024/01/27 06:08:55;;;;;;;15.63;14.63;;;0.30;99.90;;;;;;5046309;28;20473;-79
2024/01/27 06:11:25;;;;;;;15.90;14.70;;;0.20;99.90;;;;;;5035417;28;20454;-79
2024/01/27 06:13:52;;;;;;;15.97;14.67;;;0.20;99.90;;;;;;5040257;28;20526;-76
2024/01/27 06:16:19;;;;;;;15.27;14.17;;;0.20;99.90;;;;;;5029953;28;20495;-78
2024/01/27 06:18:46;;;;;;;15.77;14.53;;;0.20;99.90;;;;;;5042380;28;20477;-77
2024/01/27 06:21:13;;;;;;;15.50;14.20;;;0.20;99.90;;;;;;5045347;28;20463;-77
2024/01/27 06:23:40;;;;;;;14.73;13.53;;;0.10;99.90;;;;;;5028035;28;20440;-77
2024/01/27 06:26:09;;;;;;;15.30;13.80;;;0.10;99.90;;;;;;5035613;28;20481;-77
2024/01/27 06:28:36;;;;;;;14.63;13.43;;;0.00;99.90;;;;;;5035087;28;20469;-77
2024/01/27 06:31:03;;;;;;;15.50;14.10;;;0.00;99.90;;;;;;5043186;28;20472;-77
2024/01/27 06:33:30;;;;;;;15.27;13.97;;;0.10;99.90;;;;;;5031509;28;20852;-77
2024/01/27 06:35:56;;;;;;;14.60;13.30;;;0.10;99.90;;;;;;5044034;28;20476;-77
2024/01/27 06:38:23;;;;;;;15.00;13.63;;;0.10;99.90;;;;;;5047836;28;20453;-78
2024/01/27 06:40:50;;;;;;;15.67;14.57;;;0.10;99.90;;;;;;5038821;28;20470;-76
2024/01/27 06:43:18;;;;;;;15.90;14.60;;;0.10;99.90;;;;;;5045496;28;20442;-76
2024/01/27 06:45:45;;;;;;;15.70;14.40;;;0.10;99.90;;;;;;5042231;28;20513;-77
2024/01/27 06:48:11;;;;;;;15.47;14.27;;;0.10;99.90;;;;;;5045252;28;20987;-77
2024/01/27 06:50:38;;;;;;;14.10;13.10;;;0.10;99.90;;;;;;5039094;28;20875;-78
2024/01/27 06:53:05;;;;;;;15.93;14.57;;;0.10;99.90;;;;;;5045028;28;20938;-77
2024/01/27 06:55:32;;;;;;;14.37;13.30;;;0.10;99.90;;;;;;5047041;28;20455;-78
2024/01/27 06:57:59;;;;;;;14.53;13.53;;;0.00;99.90;;;;;;5031937;28;20482;-77
2024/01/27 07:00:27;;;;;;;16.00;14.70;;;0.10;99.90;;;;;;5045918;28;20452;-77
2024/01/27 07:02:54;;;;;;;15.77;14.23;;;0.10;99.90;;;;;;5041234;28;20448;-77
2024/01/27 07:05:22;;;;;;;16.50;15.00;;;0.10;99.90;;;;;;5031344;28;20524;-77
2024/01/27 07:07:49;;;;;;;15.60;14.30;;;0.10;99.90;;;;;;5040415;28;20439;-77
2024/01/27 07:10:15;;;;;;;15.10;13.97;;;0.10;99.90;;;;;;5037230;28;20962;-77
2024/01/27 07:12:42;;;;;;;15.93;14.73;;;0.10;99.90;;;;;;5039985;28;20448;-77
2024/01/27 07:15:10;;;;;;;16.90;15.20;;;0.00;99.90;;;;;;5030339;28;20445;-77
2024/01/27 07:17:38;;;;;;;14.93;13.73;;;0.00;99.90;;;;;;5032872;28;20465;-77
2024/01/27 07:20:06;;;;;;;16.27;15.07;;;0.00;99.90;;;;;;5033690;28;20451;-77
2024/01/27 07:22:34;;;;;;;15.07;13.77;;;0.00;99.90;;;;;;5037962;28;21013;-77
2024/01/27 07:25:01;;;;;;;16.10;14.87;;;0.00;99.90;;;;;;5030425;28;20518;-82
2024/01/27 07:27:28;;;;;;;18.00;15.10;;;0.00;99.90;;;;;;5030494;28;20834;-78
2024/01/27 07:29:55;;;;;;;15.17;13.97;;;0.00;99.90;;;;;;5036994;28;20476;-80
2024/01/27 07:32:22;;;;;;;15.00;13.70;;;0.00;99.90;;;;;;5042622;28;20444;-78
2024/01/27 07:34:50;;;;;;;15.07;13.87;;;0.00;99.90;;;;;;5036137;28;20503;-76
2024/01/27 07:37:17;;;;;;;16.40;14.93;;;0.00;99.90;;;;;;5030044;28;20511;-78
2024/01/27 07:39:43;;;;;;;15.13;13.73;;;0.10;99.90;;;;;;5040840;28;20482;-79
2024/01/27 07:42:10;;;;;;;17.03;15.60;;;0.10;99.90;;;;;;5042030;28;20444;-79
2024/01/27 07:44:37;;;;;;;17.63;15.83;;;0.10;99.90;;;;;;5031504;28;20996;-79
2024/01/27 07:47:04;;;;;;;16.33;14.93;;;0.20;99.90;;;;;;5031831;28;20441;-78
2024/01/27 07:49:31;;;;;;;15.60;14.03;;;0.30;99.90;;;;;;5034303;28;20486;-79
2024/01/27 07:51:59;;;;;;;15.37;14.13;;;0.30;99.90;;;;;;5034247;28;20484;-79
2024/01/27 07:54:26;;;;;;;15.07;13.77;;;0.30;99.90;;;;;;5047282;28;20937;-78
2024/01/27 07:56:53;;;;;;;14.67;13.47;;;0.30;99.90;;;;;;5041699;28;20437;-77
2024/01/27 07:59:19;;;;;;;13.93;12.93;;;0.50;99.90;;;;;;5039232;28;20266;-78
2024/01/27 08:01:46;;;;;;;14.53;13.40;;;0.50;99.90;;;;;;5029478;28;20532;-78
2024/01/27 08:04:15;;;;;;;15.37;14.27;;;0.50;99.90;;;;;;5035108;28;20442;-78
2024/01/27 08:06:50;;;;;;;15.50;14.13;;;0.60;99.90;;;;;;5038024;28;20879;-79
2024/01/27 08:09:19;;;;;;;14.23;13.17;;;0.60;99.90;;;;;;5043098;28;20515;-78
2024/01/27 08:11:51;;;;;;;13.83;12.63;;;0.70;99.90;;;;;;5045596;28;20821;-78
2024/01/27 08:14:17;;;;;;;13.60;12.50;;;0.80;99.90;;;;;;5045336;28;20795;-78
2024/01/27 08:16:44;;;;;;;14.13;13.13;;;1.00;99.90;;;;;;5046835;28;20500;-78
2024/01/27 08:19:11;;;;;;;14.10;13.20;;;1.20;99.90;;;;;;5050704;28;20512;-78
2024/01/27 08:21:38;;;;;;;15.97;14.87;;;1.40;99.90;;;;;;5035316;28;20438;-78
2024/01/27 08:24:05;;;;;;;16.07;15.07;;;1.50;99.90;;;;;;5039853;28;20250;-78
2024/01/27 08:26:33;;;;;;;16.77;15.67;;;1.70;99.90;;;;;;5045233;28;20219;-79
2024/01/27 08:29:00;;;;;;;16.77;15.67;;;1.80;99.90;;;;;;5044891;28;20229;-79
2024/01/27 08:31:27;;;;;;;16.97;15.87;;;2.10;99.90;;;;;;5036724;28;20345;-78
2024/01/27 08:33:53;;;;;;;18.00;16.70;;;2.30;99.90;;;;;;5035591;28;20200;-79
2024/01/27 08:36:20;;;;;;;18.53;17.23;;;2.60;99.90;;;;;;5030269;28;20226;-77
2024/01/27 08:38:47;;;;;;;17.33;16.13;;;2.80;99.90;;;;;;5040724;28;20227;-79
2024/01/27 08:41:14;;;;;;;16.97;15.70;;;3.10;99.90;;;;;;5028983;28;20232;-78
2024/01/27 08:43:45;;;;;;;16.27;15.17;;;3.20;99.90;;;;;;5037260;28;20250;-78
2024/01/27 08:46:15;;;;;;;16.43;15.33;;;3.60;99.90;;;;;;5029605;28;20228;-83
2024/01/27 08:48:42;;;;;;;16.40;15.30;;;3.80;99.90;;;;;;5044845;28;20284;-79
2024/01/27 08:51:10;;;;;;;16.50;15.40;;;3.90;99.90;;;;;;5037727;28;20202;-80
2024/01/27 08:53:36;;;;;;;15.93;14.82;;;4.10;99.90;;;;;;5021683;28;20446;-79
2024/01/27 08:56:03;;;;;;;15.80;14.67;;;4.20;99.90;;;;;;5018880;28;20271;-78
2024/01/27 08:58:30;;;;;;;15.90;14.80;;;4.40;99.90;;;;;;5021299;28;20218;-78
2024/01/27 09:01:00;;;;;;;14.73;13.77;;;4.50;99.90;;;;;;5024739;28;20653;-83
2024/01/27 09:03:26;;;;;;;15.53;14.43;;;4.50;99.90;;;;;;5031192;28;20306;-78
2024/01/27 09:05:53;;;;;;;14.40;13.40;;;4.60;99.90;;;;;;5035292;28;20251;-77
2024/01/27 09:08:20;;;;;;;14.20;13.30;;;4.50;99.90;;;;;;5024110;28;20230;-76
2024/01/27 09:10:47;;;;;;;14.30;13.40;;;4.50;99.90;;;;;;5033330;28;20658;-76
2024/01/27 09:13:13;;;;;;;14.43;13.53;;;4.60;99.90;;;;;;5044343;28;20259;-79
2024/01/27 09:15:40;;;;;;;14.50;13.60;;;4.40;99.90;;;;;;5032846;28;20194;-79
2024/01/27 09:18:08;;;;;;;13.90;13.00;;;4.30;99.90;;;;;;5041050;28;20237;-77
2024/01/27 09:20:35;;;;;;;14.33;13.43;;;4.00;99.90;;;;;;5034029;28;20586;-76
2024/01/27 09:23:02;;;;;;;15.27;14.13;;;3.90;99.90;;;;;;5037808;28;20577;-78
2024/01/27 09:25:29;;;;;;;19.77;15.80;;;3.80;99.90;;;;;;5042543;28;20653;-75
2024/01/27 09:28:00;;;;;;;16.17;15.07;;;3.60;99.90;;;;;;5034264;28;20224;-77
2024/01/27 09:30:27;;;;;;;14.87;13.87;;;3.40;99.90;;;;;;5044569;28;20670;-75
2024/01/27 09:32:54;;;;;;;15.93;14.83;;;3.40;99.90;;;;;;5046904;28;20191;-78
2024/01/27 09:35:22;;;;;;;16.63;15.40;;;3.30;99.90;;;;;;5043996;28;20239;-77
2024/01/27 09:37:49;;;;;;;16.40;15.20;;;3.30;99.90;;;;;;5027170;28;20205;-76
2024/01/27 09:40:16;;;;;;;16.83;15.43;;;3.40;99.90;;;;;;5027464;28;20228;-76
2024/01/27 09:42:51;;;;;;;16.30;15.00;;;3.30;99.90;;;;;;5044135;28;20244;-75
2024/01/27 09:45:18;;;;;;;15.77;14.57;;;3.40;99.90;;;;;;5044794;28;20218;-77
2024/01/27 09:47:47;;;;;;;15.90;14.70;;;3.50;99.90;;;;;;5034878;28;20270;-77
2024/01/27 09:50:15;;;;;;;16.50;15.30;;;3.50;99.90;;;;;;5033326;28;20615;-77
2024/01/27 09:52:43;;;;;;;15.20;14.20;;;3.60;99.90;;;;;;5047785;28;20209;-77
2024/01/27 09:55:10;;;;;;;16.07;14.77;;;3.60;99.90;;;;;;5042403;28;20570;-77
2024/01/27 09:57:39;;;;;;;16.30;15.00;;;3.60;99.90;;;;;;5040915;28;20291;-77
2024/01/27 10:00:09;;;;;;;15.67;14.47;;;3.60;99.90;;;;;;5050095;28;20208;-77
2024/01/27 10:02:36;;;;;;;15.77;14.60;;;3.60;99.90;;;;;;5040796;28;20195;-77
2024/01/27 10:05:04;;;;;;;17.13;15.83;;;3.50;99.90;;;;;;5051197;28;20199;-77
2024/01/27 10:07:32;;;;;;;16.63;15.13;;;3.50;99.90;;;;;;5042399;28;20255;-77
2024/01/27 10:10:00;;;;;;;17.40;15.93;;;3.40;99.90;;;;;;5044187;28;20564;-79
2024/01/27 10:12:29;;;;;;;16.97;15.47;;;3.40;99.90;;;;;;5034813;28;20330;-79
2024/01/27 10:14:56;;;;;;;16.97;15.57;;;3.40;99.90;;;;;;5031017;28;20702;-77
2024/01/27 10:17:25;;;;;;;16.23;15.00;;;3.50;99.90;;;;;;5031341;28;20274;-77
2024/01/27 10:20:01;;;;;;;16.53;15.33;;;3.70;99.90;;;;;;5041237;28;20228;-77
2024/01/27 10:22:28;;;;;;;16.23;15.03;;;3.90;99.90;;;;;;5036862;28;20201;-77
2024/01/27 10:24:55;;;;;;;16.63;15.33;;;4.00;99.90;;;;;;5039923;28;20200;-77
2024/01/27 10:27:23;;;;;;;16.17;14.87;;;3.90;99.90;;;;;;5033868;28;20218;-77
2024/01/27 10:29:54;;;;;;;15.63;14.53;;;3.90;99.90;;;;;;5048181;28;20219;-77
2024/01/27 10:32:23;;;;;;;17.60;16.10;;;3.90;99.90;;;;;;5037268;28;20209;-78
2024/01/27 10:34:50;;;;;;;16.73;15.43;;;3.70;99.90;;;;;;5038649;28;20710;-78
2024/01/27 10:37:24;;;;;;;16.00;14.70;;;3.60;99.90;;;;;;5042349;28;20206;-78
2024/01/27 10:39:59;;;;;;;15.70;14.50;;;3.70;99.90;;;;;;5033621;28;20225;-78
2024/01/27 10:42:29;;;;;;;16.67;15.27;;;3.90;99.90;;;;;;5048767;28;20618;-78
2024/01/27 10:44:58;;;;;;;16.10;14.80;;;3.80;99.90;;;;;;5043486;28;20255;-78
2024/01/27 10:47:28;;;;;;;15.83;14.73;;;3.80;99.90;;;;;;5045779;28;20603;-78
2024/01/27 10:49:56;;;;;;;16.40;15.27;;;3.80;99.90;;;;;;5043061;28;20221;-78
2024/01/27 10:52:28;;;;;;;16.13;14.93;;;3.70;99.90;;;;;;5047530;28;20339;-78
2024/01/27 10:54:59;;;;;;;16.93;15.60;;;3.60;99.90;;;;;;5028743;28;20210;-76
2024/01/27 10:57:29;;;;;;;15.57;14.47;;;3.50;99.90;;;;;;5040911;28;20211;-77
2024/01/27 10:59:57;;;;;;;16.90;15.60;;;3.50;99.90;;;;;;5033558;28;20352;-77
2024/01/27 11:02:24;;;;;;;15.97;14.63;;;3.60;99.90;;;;;;5039981;28;20724;-77
2024/01/27 11:04:53;;;;;;;16.10;15.00;;;3.60;99.90;;;;;;5036197;28;20266;-77
2024/01/27 11:07:22;;;;;;;16.70;15.40;;;3.70;99.90;;;;;;5036586;28;20221;-78
2024/01/27 11:09:51;;;;;;;16.23;15.03;;;3.80;99.90;;;;;;5038134;28;20252;-78
2024/01/27 11:12:19;;;;;;;15.47;14.47;;;3.90;99.90;;;;;;5021177;28;20283;-78
2024/01/27 11:14:48;;;;;;;16.80;15.70;;;4.10;99.90;;;;;;5046640;28;20437;-77
2024/01/27 11:17:15;;;;;;;15.37;14.30;;;4.10;99.90;;;;;;5047011;28;20215;-78
2024/01/27 11:19:42;;;;;;;15.37;14.27;;;4.20;99.90;;;;;;5037452;28;20271;-79
2024/01/27 11:22:08;;;;;;;15.40;14.40;;;4.20;99.90;;;;;;5038059;28;20214;-77
2024/01/27 11:24:35;;;;;;;15.80;14.57;;;4.30;99.90;;;;;;5043011;28;20221;-78
2024/01/27 11:27:03;;;;;;;16.33;15.13;;;4.40;99.90;;;;;;5038528;28;20220;-79
2024/01/27 11:29:37;;;;;;;18.13;16.43;;;4.30;99.90;;;;;;5033201;28;20220;-81
2024/01/27 11:32:08;;;;;;;17.57;15.77;;;4.30;99.90;;;;;;5032532;28;20291;-78
2024/01/27 11:34:45;;;;;;;16.87;15.57;;;4.40;99.90;;;;;;5027422;28;20197;-80
2024/01/27 11:37:13;;;;;;;17.10;15.70;;;4.40;99.90;;;;;;5032193;28;20195;-79
2024/01/27 11:39:40;;;;;;;17.80;16.30;;;4.40;99.90;;;;;;5041201;28;20219;-79
2024/01/27 11:42:07;;;;;;;17.40;16.00;;;4.50;99.90;;;;;;5041271;28;20196;-79
2024/01/27 11:44:37;;;;;;;17.33;15.93;;;4.50;99.90;;;;;;5034101;28;20192;-81
2024/01/27 11:47:05;;;;;;;17.00;15.70;;;4.60;99.90;;;;;;5035317;28;20678;-80
2024/01/27 11:49:34;;;;;;;16.30;14.90;;;4.60;99.90;;;;;;5032246;28;20219;-79
2024/01/27 11:52:01;;;;;;;17.57;15.87;;;4.70;99.90;;;;;;5029571;28;20211;-78
2024/01/27 11:54:27;;;;;;;17.53;15.97;;;4.70;99.90;;;;;;5035092;28;20192;-78
2024/01/27 11:56:54;;;;;;;17.00;15.47;;;4.70;99.90;;;;;;5021368;28;20250;-78
2024/01/27 11:59:22;;;;;;;16.47;15.03;;;4.70;99.90;;;;;;5029002;28;20212;-77
2024/01/27 12:01:49;;;;;;;16.40;15.00;;;4.80;99.90;;;;;;5026507;28;20205;-77
2024/01/27 12:04:16;;;;;;;15.97;14.70;;;4.90;99.90;;;;;;5028030;28;20201;-82
2024/01/27 12:06:44;;;;;;;16.13;14.97;;;5.00;99.90;;;;;;5025531;28;20247;-76
2024/01/27 12:09:12;;;;;;;15.60;14.30;;;5.10;99.90;;;;;;5019678;28;20296;-79
2024/01/27 12:11:40;;;;;;;15.70;14.63;;;5.20;99.90;;;;;;5021115;28;20205;-78
2024/01/27 12:14:06;;;;;;;16.87;15.60;;;5.20;99.90;;;;;;5029540;28;20202;-78
2024/01/27 12:16:33;;;;;;;16.53;15.33;;;5.20;99.90;;;;;;5040452;28;20197;-78
2024/01/27 12:19:00;;;;;;;17.20;15.80;;;5.30;99.90;;;;;;5035039;28;20230;-77
2024/01/27 12:21:28;;;;;;;17.17;15.57;;;5.30;99.90;;;;;;5043289;28;20686;-80
2024/01/27 12:23:57;;;;;;;16.87;15.20;;;5.30;99.90;;;;;;5031895;28;20227;-79
2024/01/27 12:26:26;;;;;;;16.13;14.80;;;5.30;99.90;;;;;;5038395;28;20233;-82
2024/01/27 12:28:55;;;;;;;15.97;14.87;;;5.30;99.90;;;;;;5044834;28;20275;-81
2024/01/27 12:31:23;;;;;;;17.30;15.63;;;5.30;99.90;;;;;;5035768;28;20196;-81
2024/01/27 12:33:51;;;;;;;16.10;14.90;;;5.40;99.90;;;;;;5045706;28;20214;-81
2024/01/27 12:36:20;;;;;;;17.60;16.00;;;5.40;99.90;;;;;;5032535;28;20200;-81